sensor_id;sensor_type;location;lat;lon;timestamp;P1;durP1;ratioP1;P2;durP2;ratioP2
16401;SDS011;8310;44.626;11.176;2022-12-07T00:01:03;33.88;;;20.65;;
16401;SDS011;8310;44.626;11.176;2022-12-07T00:03:32;30.13;;;18.67;;
16401;SDS011;8310;44.626;11.176;2022-12-07T00:06:00;29.73;;;19.00;;
16401;SDS011;8310;44.626;11.176;2022-12-07T00:08:30;29.95;;;19.45;;
16401;SDS011;8310;44.626;11.176;2022-12-07T00:11:00;29.98;;;18.95;;
16401;SDS011;8310;44.626;11.176;2022-12-07T00:13:28;25.13;;;17.10;;
16401;SDS011;8310;44.626;11.176;2022-12-07T00:15:59;28.10;;;17.73;;
16401;SDS011;8310;44.626;11.176;2022-12-07T00:18:28;29.15;;;18.48;;
16401;SDS011;8310;44.626;11.176;2022-12-07T00:20:59;32.80;;;18.15;;
16401;SDS011;8310;44.626;11.176;2022-12-07T00:23:27;29.60;;;18.92;;
16401;SDS011;8310;44.626;11.176;2022-12-07T00:26:02;28.58;;;18.27;;
16401;SDS011;8310;44.626;11.176;2022-12-07T00:28:31;25.33;;;16.77;;
16401;SDS011;8310;44.626;11.176;2022-12-07T00:31:00;27.73;;;16.95;;
16401;SDS011;8310;44.626;11.176;2022-12-07T00:33:28;28.30;;;17.92;;
16401;SDS011;8310;44.626;11.176;2022-12-07T00:35:56;25.05;;;17.10;;
16401;SDS011;8310;44.626;11.176;2022-12-07T00:38:24;25.80;;;16.92;;
16401;SDS011;8310;44.626;11.176;2022-12-07T00:40:56;23.88;;;16.50;;
16401;SDS011;8310;44.626;11.176;2022-12-07T00:43:24;24.08;;;16.08;;
16401;SDS011;8310;44.626;11.176;2022-12-07T00:45:52;26.58;;;17.38;;
16401;SDS011;8310;44.626;11.176;2022-12-07T00:48:21;26.02;;;16.70;;
16401;SDS011;8310;44.626;11.176;2022-12-07T00:50:49;25.98;;;17.50;;
16401;SDS011;8310;44.626;11.176;2022-12-07T00:53:17;28.02;;;18.00;;
16401;SDS011;8310;44.626;11.176;2022-12-07T00:55:45;23.52;;;15.27;;
16401;SDS011;8310;44.626;11.176;2022-12-07T00:58:14;26.88;;;17.83;;
16401;SDS011;8310;44.626;11.176;2022-12-07T01:00:42;29.98;;;18.58;;
16401;SDS011;8310;44.626;11.176;2022-12-07T01:03:11;29.00;;;19.17;;
16401;SDS011;8310;44.626;11.176;2022-12-07T01:05:40;33.70;;;20.17;;
16401;SDS011;8310;44.626;11.176;2022-12-07T01:08:16;29.60;;;19.35;;
16401;SDS011;8310;44.626;11.176;2022-12-07T01:10:44;26.98;;;17.75;;
16401;SDS011;8310;44.626;11.176;2022-12-07T01:13:11;27.73;;;17.92;;
16401;SDS011;8310;44.626;11.176;2022-12-07T01:15:41;31.70;;;18.98;;
16401;SDS011;8310;44.626;11.176;2022-12-07T01:18:09;30.92;;;19.55;;
16401;SDS011;8310;44.626;11.176;2022-12-07T01:20:37;33.88;;;19.55;;
16401;SDS011;8310;44.626;11.176;2022-12-07T01:23:04;31.77;;;19.52;;
16401;SDS011;8310;44.626;11.176;2022-12-07T01:25:31;32.70;;;19.75;;
16401;SDS011;8310;44.626;11.176;2022-12-07T01:27:59;35.65;;;19.92;;
16401;SDS011;8310;44.626;11.176;2022-12-07T01:30:26;31.40;;;20.35;;
16401;SDS011;8310;44.626;11.176;2022-12-07T01:32:58;34.72;;;19.95;;
16401;SDS011;8310;44.626;11.176;2022-12-07T01:35:26;32.58;;;18.85;;
16401;SDS011;8310;44.626;11.176;2022-12-07T01:37:54;35.67;;;21.33;;
16401;SDS011;8310;44.626;11.176;2022-12-07T01:40:24;36.22;;;21.15;;
16401;SDS011;8310;44.626;11.176;2022-12-07T01:42:52;35.25;;;20.23;;
16401;SDS011;8310;44.626;11.176;2022-12-07T01:48:08;36.42;;;21.88;;
16401;SDS011;8310;44.626;11.176;2022-12-07T01:50:37;39.53;;;22.20;;
16401;SDS011;8310;44.626;11.176;2022-12-07T01:53:06;33.13;;;20.40;;
16401;SDS011;8310;44.626;11.176;2022-12-07T01:55:37;41.47;;;22.48;;
16401;SDS011;8310;44.626;11.176;2022-12-07T01:58:09;39.72;;;21.55;;
16401;SDS011;8310;44.626;11.176;2022-12-07T02:00:38;40.00;;;22.08;;
16401;SDS011;8310;44.626;11.176;2022-12-07T02:03:08;37.33;;;22.52;;
16401;SDS011;8310;44.626;11.176;2022-12-07T02:05:40;38.45;;;21.35;;
16401;SDS011;8310;44.626;11.176;2022-12-07T02:08:09;36.85;;;20.67;;
16401;SDS011;8310;44.626;11.176;2022-12-07T02:10:39;43.05;;;23.17;;
16401;SDS011;8310;44.626;11.176;2022-12-07T02:13:08;46.70;;;23.40;;
16401;SDS011;8310;44.626;11.176;2022-12-07T02:15:43;43.85;;;22.27;;
16401;SDS011;8310;44.626;11.176;2022-12-07T02:18:21;40.55;;;21.45;;
16401;SDS011;8310;44.626;11.176;2022-12-07T02:20:57;41.97;;;21.95;;
16401;SDS011;8310;44.626;11.176;2022-12-07T02:23:40;45.22;;;23.05;;
16401;SDS011;8310;44.626;11.176;2022-12-07T02:26:23;43.90;;;22.63;;
16401;SDS011;8310;44.626;11.176;2022-12-07T02:29:16;46.67;;;24.73;;
16401;SDS011;8310;44.626;11.176;2022-12-07T02:31:51;42.85;;;22.60;;
16401;SDS011;8310;44.626;11.176;2022-12-07T02:34:28;44.60;;;22.85;;
16401;SDS011;8310;44.626;11.176;2022-12-07T02:37:02;43.88;;;24.20;;
16401;SDS011;8310;44.626;11.176;2022-12-07T02:39:37;46.65;;;22.70;;
16401;SDS011;8310;44.626;11.176;2022-12-07T02:42:11;49.00;;;23.17;;
16401;SDS011;8310;44.626;11.176;2022-12-07T02:44:46;53.00;;;24.30;;
16401;SDS011;8310;44.626;11.176;2022-12-07T02:47:14;44.85;;;23.98;;
16401;SDS011;8310;44.626;11.176;2022-12-07T02:49:44;50.90;;;24.20;;
16401;SDS011;8310;44.626;11.176;2022-12-07T02:52:13;45.70;;;24.30;;
16401;SDS011;8310;44.626;11.176;2022-12-07T02:54:40;48.60;;;23.30;;
16401;SDS011;8310;44.626;11.176;2022-12-07T02:57:14;44.20;;;23.85;;
16401;SDS011;8310;44.626;11.176;2022-12-07T02:59:57;44.97;;;23.83;;
16401;SDS011;8310;44.626;11.176;2022-12-07T03:02:31;44.20;;;23.52;;
16401;SDS011;8310;44.626;11.176;2022-12-07T03:05:10;43.08;;;23.13;;
16401;SDS011;8310;44.626;11.176;2022-12-07T03:07:48;44.95;;;23.45;;
16401;SDS011;8310;44.626;11.176;2022-12-07T03:10:21;49.28;;;25.88;;
16401;SDS011;8310;44.626;11.176;2022-12-07T03:12:57;49.22;;;24.52;;
16401;SDS011;8310;44.626;11.176;2022-12-07T03:15:31;52.40;;;25.42;;
16401;SDS011;8310;44.626;11.176;2022-12-07T03:18:02;45.25;;;23.25;;
16401;SDS011;8310;44.626;11.176;2022-12-07T03:20:31;52.90;;;24.08;;
16401;SDS011;8310;44.626;11.176;2022-12-07T03:23:01;48.90;;;23.75;;
16401;SDS011;8310;44.626;11.176;2022-12-07T03:25:31;42.72;;;23.23;;
16401;SDS011;8310;44.626;11.176;2022-12-07T03:28:03;63.10;;;24.83;;
16401;SDS011;8310;44.626;11.176;2022-12-07T03:30:39;52.08;;;24.20;;
16401;SDS011;8310;44.626;11.176;2022-12-07T03:33:13;47.22;;;23.55;;
16401;SDS011;8310;44.626;11.176;2022-12-07T03:35:47;47.53;;;24.13;;
16401;SDS011;8310;44.626;11.176;2022-12-07T03:38:19;45.00;;;24.42;;
16401;SDS011;8310;44.626;11.176;2022-12-07T03:40:52;50.05;;;24.48;;
16401;SDS011;8310;44.626;11.176;2022-12-07T03:43:25;48.78;;;24.00;;
16401;SDS011;8310;44.626;11.176;2022-12-07T03:45:58;52.20;;;24.23;;
16401;SDS011;8310;44.626;11.176;2022-12-07T03:48:36;60.95;;;24.90;;
16401;SDS011;8310;44.626;11.176;2022-12-07T03:51:10;67.10;;;26.98;;
16401;SDS011;8310;44.626;11.176;2022-12-07T03:53:45;49.53;;;24.20;;
16401;SDS011;8310;44.626;11.176;2022-12-07T03:56:17;70.25;;;25.40;;
16401;SDS011;8310;44.626;11.176;2022-12-07T03:58:48;59.38;;;26.75;;
16401;SDS011;8310;44.626;11.176;2022-12-07T04:01:18;56.70;;;25.33;;
16401;SDS011;8310;44.626;11.176;2022-12-07T04:03:46;51.20;;;24.50;;
16401;SDS011;8310;44.626;11.176;2022-12-07T04:06:13;51.58;;;25.40;;
16401;SDS011;8310;44.626;11.176;2022-12-07T04:08:42;49.15;;;25.00;;
16401;SDS011;8310;44.626;11.176;2022-12-07T04:11:10;49.72;;;26.35;;
16401;SDS011;8310;44.626;11.176;2022-12-07T04:13:37;57.50;;;25.75;;
16401;SDS011;8310;44.626;11.176;2022-12-07T04:16:20;50.03;;;25.23;;
16401;SDS011;8310;44.626;11.176;2022-12-07T04:18:47;52.85;;;25.42;;
16401;SDS011;8310;44.626;11.176;2022-12-07T04:21:14;63.97;;;25.55;;
16401;SDS011;8310;44.626;11.176;2022-12-07T04:23:43;49.30;;;25.38;;
16401;SDS011;8310;44.626;11.176;2022-12-07T04:26:11;49.22;;;24.48;;
16401;SDS011;8310;44.626;11.176;2022-12-07T04:28:39;59.92;;;25.88;;
16401;SDS011;8310;44.626;11.176;2022-12-07T04:31:07;63.25;;;25.75;;
16401;SDS011;8310;44.626;11.176;2022-12-07T04:33:36;50.95;;;24.45;;
16401;SDS011;8310;44.626;11.176;2022-12-07T04:36:05;43.72;;;24.20;;
16401;SDS011;8310;44.626;11.176;2022-12-07T04:38:34;63.28;;;25.88;;
16401;SDS011;8310;44.626;11.176;2022-12-07T04:41:04;59.03;;;25.17;;
16401;SDS011;8310;44.626;11.176;2022-12-07T04:43:32;52.80;;;26.33;;
16401;SDS011;8310;44.626;11.176;2022-12-07T04:45:59;64.47;;;25.30;;
16401;SDS011;8310;44.626;11.176;2022-12-07T04:48:27;54.28;;;25.55;;
16401;SDS011;8310;44.626;11.176;2022-12-07T04:50:58;67.25;;;26.23;;
16401;SDS011;8310;44.626;11.176;2022-12-07T04:53:26;64.43;;;26.50;;
16401;SDS011;8310;44.626;11.176;2022-12-07T04:55:53;51.92;;;25.73;;
16401;SDS011;8310;44.626;11.176;2022-12-07T04:58:26;54.42;;;26.42;;
16401;SDS011;8310;44.626;11.176;2022-12-07T05:00:54;63.05;;;26.08;;
16401;SDS011;8310;44.626;11.176;2022-12-07T05:03:22;60.38;;;25.25;;
16401;SDS011;8310;44.626;11.176;2022-12-07T05:05:49;69.32;;;27.77;;
16401;SDS011;8310;44.626;11.176;2022-12-07T05:08:18;57.20;;;26.52;;
16401;SDS011;8310;44.626;11.176;2022-12-07T05:10:48;62.10;;;26.48;;
16401;SDS011;8310;44.626;11.176;2022-12-07T05:13:15;55.15;;;25.70;;
16401;SDS011;8310;44.626;11.176;2022-12-07T05:15:43;78.03;;;27.13;;
16401;SDS011;8310;44.626;11.176;2022-12-07T05:18:11;72.07;;;26.88;;
16401;SDS011;8310;44.626;11.176;2022-12-07T05:20:38;62.40;;;26.25;;
16401;SDS011;8310;44.626;11.176;2022-12-07T05:23:06;66.88;;;26.40;;
16401;SDS011;8310;44.626;11.176;2022-12-07T05:25:36;68.28;;;27.30;;
16401;SDS011;8310;44.626;11.176;2022-12-07T05:28:04;56.60;;;27.52;;
16401;SDS011;8310;44.626;11.176;2022-12-07T05:30:32;74.97;;;27.83;;
16401;SDS011;8310;44.626;11.176;2022-12-07T05:32:59;71.60;;;27.65;;
16401;SDS011;8310;44.626;11.176;2022-12-07T05:35:28;67.47;;;28.50;;
16401;SDS011;8310;44.626;11.176;2022-12-07T05:37:55;62.13;;;26.98;;
16401;SDS011;8310;44.626;11.176;2022-12-07T05:40:23;77.57;;;27.45;;
16401;SDS011;8310;44.626;11.176;2022-12-07T05:42:52;72.25;;;28.67;;
16401;SDS011;8310;44.626;11.176;2022-12-07T05:45:20;64.45;;;27.85;;
16401;SDS011;8310;44.626;11.176;2022-12-07T05:47:47;60.22;;;27.50;;
16401;SDS011;8310;44.626;11.176;2022-12-07T05:50:15;54.40;;;27.80;;
16401;SDS011;8310;44.626;11.176;2022-12-07T05:52:42;52.80;;;26.40;;
16401;SDS011;8310;44.626;11.176;2022-12-07T05:55:11;52.13;;;26.67;;
16401;SDS011;8310;44.626;11.176;2022-12-07T05:57:38;46.78;;;25.42;;
16401;SDS011;8310;44.626;11.176;2022-12-07T06:00:27;49.67;;;26.25;;
16401;SDS011;8310;44.626;11.176;2022-12-07T06:02:54;44.58;;;26.42;;
16401;SDS011;8310;44.626;11.176;2022-12-07T06:05:21;48.00;;;25.60;;
16401;SDS011;8310;44.626;11.176;2022-12-07T06:07:49;46.47;;;25.25;;
16401;SDS011;8310;44.626;11.176;2022-12-07T06:10:16;44.67;;;24.60;;
16401;SDS011;8310;44.626;11.176;2022-12-07T06:12:45;47.72;;;25.17;;
16401;SDS011;8310;44.626;11.176;2022-12-07T06:15:11;45.22;;;25.38;;
16401;SDS011;8310;44.626;11.176;2022-12-07T06:17:41;50.60;;;27.27;;
16401;SDS011;8310;44.626;11.176;2022-12-07T06:20:09;52.45;;;27.48;;
16401;SDS011;8310;44.626;11.176;2022-12-07T06:22:36;47.83;;;25.67;;
16401;SDS011;8310;44.626;11.176;2022-12-07T06:25:04;50.35;;;26.85;;
16401;SDS011;8310;44.626;11.176;2022-12-07T06:27:34;51.15;;;28.15;;
16401;SDS011;8310;44.626;11.176;2022-12-07T06:30:02;47.33;;;27.35;;
16401;SDS011;8310;44.626;11.176;2022-12-07T06:32:33;51.50;;;26.02;;
16401;SDS011;8310;44.626;11.176;2022-12-07T06:35:02;54.72;;;27.33;;
16401;SDS011;8310;44.626;11.176;2022-12-07T06:37:30;52.08;;;27.70;;
16401;SDS011;8310;44.626;11.176;2022-12-07T06:39:57;53.53;;;29.05;;
16401;SDS011;8310;44.626;11.176;2022-12-07T06:42:25;51.33;;;26.83;;
16401;SDS011;8310;44.626;11.176;2022-12-07T06:44:52;56.33;;;28.50;;
16401;SDS011;8310;44.626;11.176;2022-12-07T06:47:20;56.08;;;27.60;;
16401;SDS011;8310;44.626;11.176;2022-12-07T06:49:48;62.05;;;30.40;;
16401;SDS011;8310;44.626;11.176;2022-12-07T06:52:18;60.28;;;28.33;;
16401;SDS011;8310;44.626;11.176;2022-12-07T06:54:46;57.05;;;29.58;;
16401;SDS011;8310;44.626;11.176;2022-12-07T06:57:14;60.88;;;31.05;;
16401;SDS011;8310;44.626;11.176;2022-12-07T06:59:42;63.20;;;30.88;;
16401;SDS011;8310;44.626;11.176;2022-12-07T07:02:09;62.00;;;30.30;;
16401;SDS011;8310;44.626;11.176;2022-12-07T07:04:37;57.58;;;29.00;;
16401;SDS011;8310;44.626;11.176;2022-12-07T07:07:05;58.33;;;29.92;;
16401;SDS011;8310;44.626;11.176;2022-12-07T07:09:33;62.33;;;29.98;;
16401;SDS011;8310;44.626;11.176;2022-12-07T07:12:01;60.63;;;30.30;;
16401;SDS011;8310;44.626;11.176;2022-12-07T07:14:29;60.47;;;30.52;;
16401;SDS011;8310;44.626;11.176;2022-12-07T07:16:57;51.70;;;31.13;;
16401;SDS011;8310;44.626;11.176;2022-12-07T07:19:24;56.25;;;29.10;;
16401;SDS011;8310;44.626;11.176;2022-12-07T07:21:52;52.13;;;29.00;;
16401;SDS011;8310;44.626;11.176;2022-12-07T07:24:19;56.90;;;30.70;;
16401;SDS011;8310;44.626;11.176;2022-12-07T07:26:49;52.83;;;29.02;;
16401;SDS011;8310;44.626;11.176;2022-12-07T07:29:16;53.30;;;28.95;;
16401;SDS011;8310;44.626;11.176;2022-12-07T07:31:44;53.28;;;29.15;;
16401;SDS011;8310;44.626;11.176;2022-12-07T07:34:14;54.92;;;29.48;;
16401;SDS011;8310;44.626;11.176;2022-12-07T07:36:42;47.50;;;27.98;;
16401;SDS011;8310;44.626;11.176;2022-12-07T07:39:09;56.28;;;30.48;;
16401;SDS011;8310;44.626;11.176;2022-12-07T07:41:37;78.03;;;37.88;;
16401;SDS011;8310;44.626;11.176;2022-12-07T07:44:06;81.15;;;37.05;;
16401;SDS011;8310;44.626;11.176;2022-12-07T07:46:34;73.72;;;35.10;;
16401;SDS011;8310;44.626;11.176;2022-12-07T07:49:01;67.45;;;34.88;;
16401;SDS011;8310;44.626;11.176;2022-12-07T07:51:29;70.30;;;34.72;;
16401;SDS011;8310;44.626;11.176;2022-12-07T07:53:57;70.70;;;34.72;;
16401;SDS011;8310;44.626;11.176;2022-12-07T07:56:24;59.58;;;32.58;;
16401;SDS011;8310;44.626;11.176;2022-12-07T07:58:52;61.85;;;34.85;;
16401;SDS011;8310;44.626;11.176;2022-12-07T08:01:21;64.65;;;35.78;;
16401;SDS011;8310;44.626;11.176;2022-12-07T08:03:49;64.75;;;35.28;;
16401;SDS011;8310;44.626;11.176;2022-12-07T08:06:17;70.68;;;33.25;;
16401;SDS011;8310;44.626;11.176;2022-12-07T08:08:44;62.97;;;33.65;;
16401;SDS011;8310;44.626;11.176;2022-12-07T08:11:12;68.00;;;35.28;;
16401;SDS011;8310;44.626;11.176;2022-12-07T08:13:39;60.08;;;31.25;;
16401;SDS011;8310;44.626;11.176;2022-12-07T08:16:07;60.72;;;32.30;;
16401;SDS011;8310;44.626;11.176;2022-12-07T08:18:38;59.00;;;32.55;;
16401;SDS011;8310;44.626;11.176;2022-12-07T08:21:07;56.10;;;33.53;;
16401;SDS011;8310;44.626;11.176;2022-12-07T08:23:38;59.47;;;33.95;;
16401;SDS011;8310;44.626;11.176;2022-12-07T08:26:12;58.60;;;31.70;;
16401;SDS011;8310;44.626;11.176;2022-12-07T08:28:42;56.85;;;31.35;;
16401;SDS011;8310;44.626;11.176;2022-12-07T08:31:11;59.78;;;32.22;;
16401;SDS011;8310;44.626;11.176;2022-12-07T08:33:42;64.65;;;32.58;;
16401;SDS011;8310;44.626;11.176;2022-12-07T08:36:11;64.50;;;34.05;;
16401;SDS011;8310;44.626;11.176;2022-12-07T08:38:39;57.00;;;31.27;;
16401;SDS011;8310;44.626;11.176;2022-12-07T08:41:07;57.42;;;30.75;;
16401;SDS011;8310;44.626;11.176;2022-12-07T08:43:36;57.55;;;31.42;;
16401;SDS011;8310;44.626;11.176;2022-12-07T08:46:06;51.83;;;30.15;;
16401;SDS011;8310;44.626;11.176;2022-12-07T08:48:38;50.72;;;30.23;;
16401;SDS011;8310;44.626;11.176;2022-12-07T08:51:12;51.75;;;29.55;;
16401;SDS011;8310;44.626;11.176;2022-12-07T08:53:40;57.03;;;31.17;;
16401;SDS011;8310;44.626;11.176;2022-12-07T08:56:09;55.00;;;30.15;;
16401;SDS011;8310;44.626;11.176;2022-12-07T08:58:37;56.53;;;30.17;;
16401;SDS011;8310;44.626;11.176;2022-12-07T09:01:05;49.95;;;29.60;;
16401;SDS011;8310;44.626;11.176;2022-12-07T09:03:33;50.33;;;29.45;;
16401;SDS011;8310;44.626;11.176;2022-12-07T09:06:02;52.95;;;29.65;;
16401;SDS011;8310;44.626;11.176;2022-12-07T09:08:31;48.28;;;28.90;;
16401;SDS011;8310;44.626;11.176;2022-12-07T09:11:03;55.13;;;30.10;;
16401;SDS011;8310;44.626;11.176;2022-12-07T09:13:30;47.15;;;28.58;;
16401;SDS011;8310;44.626;11.176;2022-12-07T09:15:58;49.88;;;29.35;;
16401;SDS011;8310;44.626;11.176;2022-12-07T09:18:26;49.97;;;28.77;;
16401;SDS011;8310;44.626;11.176;2022-12-07T09:20:53;47.88;;;29.05;;
16401;SDS011;8310;44.626;11.176;2022-12-07T09:23:22;47.65;;;29.02;;
16401;SDS011;8310;44.626;11.176;2022-12-07T09:25:50;47.83;;;30.23;;
16401;SDS011;8310;44.626;11.176;2022-12-07T09:28:18;47.72;;;29.73;;
16401;SDS011;8310;44.626;11.176;2022-12-07T09:30:46;45.28;;;28.55;;
16401;SDS011;8310;44.626;11.176;2022-12-07T09:33:14;46.60;;;28.90;;
16401;SDS011;8310;44.626;11.176;2022-12-07T09:35:48;48.35;;;30.67;;
16401;SDS011;8310;44.626;11.176;2022-12-07T09:38:17;45.70;;;27.45;;
16401;SDS011;8310;44.626;11.176;2022-12-07T09:40:46;41.53;;;28.02;;
16401;SDS011;8310;44.626;11.176;2022-12-07T09:43:14;44.05;;;28.75;;
16401;SDS011;8310;44.626;11.176;2022-12-07T09:45:52;43.15;;;28.20;;
16401;SDS011;8310;44.626;11.176;2022-12-07T09:48:23;39.75;;;28.55;;
16401;SDS011;8310;44.626;11.176;2022-12-07T09:50:57;41.92;;;27.48;;
16401;SDS011;8310;44.626;11.176;2022-12-07T09:53:26;43.80;;;27.65;;
16401;SDS011;8310;44.626;11.176;2022-12-07T09:55:57;40.10;;;28.05;;
16401;SDS011;8310;44.626;11.176;2022-12-07T09:58:26;40.45;;;26.27;;
16401;SDS011;8310;44.626;11.176;2022-12-07T10:00:57;36.38;;;25.15;;
16401;SDS011;8310;44.626;11.176;2022-12-07T10:03:28;41.25;;;27.65;;
16401;SDS011;8310;44.626;11.176;2022-12-07T10:05:56;39.38;;;26.77;;
16401;SDS011;8310;44.626;11.176;2022-12-07T10:08:24;40.03;;;27.70;;
16401;SDS011;8310;44.626;11.176;2022-12-07T10:10:52;42.63;;;29.05;;
16401;SDS011;8310;44.626;11.176;2022-12-07T10:13:33;40.55;;;28.70;;
16401;SDS011;8310;44.626;11.176;2022-12-07T10:16:02;44.85;;;28.05;;
16401;SDS011;8310;44.626;11.176;2022-12-07T10:18:31;41.13;;;28.27;;
16401;SDS011;8310;44.626;11.176;2022-12-07T10:21:11;45.67;;;29.23;;
16401;SDS011;8310;44.626;11.176;2022-12-07T10:23:40;43.42;;;26.98;;
16401;SDS011;8310;44.626;11.176;2022-12-07T10:26:26;43.20;;;28.20;;
16401;SDS011;8310;44.626;11.176;2022-12-07T10:29:00;45.75;;;29.75;;
16401;SDS011;8310;44.626;11.176;2022-12-07T10:31:30;46.38;;;29.63;;
16401;SDS011;8310;44.626;11.176;2022-12-07T10:33:58;42.42;;;27.42;;
16401;SDS011;8310;44.626;11.176;2022-12-07T10:36:27;43.90;;;29.35;;
16401;SDS011;8310;44.626;11.176;2022-12-07T10:39:04;44.85;;;27.75;;
16401;SDS011;8310;44.626;11.176;2022-12-07T10:41:52;41.17;;;27.83;;
16401;SDS011;8310;44.626;11.176;2022-12-07T10:44:22;40.50;;;26.85;;
16401;SDS011;8310;44.626;11.176;2022-12-07T10:50:25;43.75;;;27.23;;
16401;SDS011;8310;44.626;11.176;2022-12-07T10:55:58;42.85;;;27.90;;
16401;SDS011;8310;44.626;11.176;2022-12-07T10:58:43;38.92;;;26.05;;
16401;SDS011;8310;44.626;11.176;2022-12-07T11:01:21;41.55;;;27.17;;
16401;SDS011;8310;44.626;11.176;2022-12-07T11:04:00;41.13;;;27.15;;
16401;SDS011;8310;44.626;11.176;2022-12-07T11:06:43;39.72;;;26.08;;
16401;SDS011;8310;44.626;11.176;2022-12-07T11:09:35;41.55;;;28.17;;
16401;SDS011;8310;44.626;11.176;2022-12-07T11:12:27;39.28;;;26.20;;
16401;SDS011;8310;44.626;11.176;2022-12-07T11:15:04;40.92;;;26.38;;
16401;SDS011;8310;44.626;11.176;2022-12-07T11:17:45;37.75;;;25.80;;
16401;SDS011;8310;44.626;11.176;2022-12-07T11:20:24;37.80;;;26.38;;
16401;SDS011;8310;44.626;11.176;2022-12-07T11:23:02;36.38;;;24.88;;
16401;SDS011;8310;44.626;11.176;2022-12-07T11:25:38;38.22;;;27.33;;
16401;SDS011;8310;44.626;11.176;2022-12-07T11:28:18;39.53;;;26.27;;
16401;SDS011;8310;44.626;11.176;2022-12-07T11:31:01;41.80;;;27.73;;
16401;SDS011;8310;44.626;11.176;2022-12-07T11:33:39;41.15;;;27.13;;
16401;SDS011;8310;44.626;11.176;2022-12-07T11:36:16;41.50;;;28.42;;
16401;SDS011;8310;44.626;11.176;2022-12-07T11:38:55;39.35;;;27.27;;
16401;SDS011;8310;44.626;11.176;2022-12-07T11:41:27;36.30;;;26.08;;
16401;SDS011;8310;44.626;11.176;2022-12-07T11:43:59;38.95;;;26.55;;
16401;SDS011;8310;44.626;11.176;2022-12-07T11:46:42;38.30;;;28.10;;
16401;SDS011;8310;44.626;11.176;2022-12-07T11:49:19;34.85;;;25.73;;
16401;SDS011;8310;44.626;11.176;2022-12-07T11:51:52;37.85;;;27.05;;
16401;SDS011;8310;44.626;11.176;2022-12-07T11:54:24;35.90;;;27.85;;
16401;SDS011;8310;44.626;11.176;2022-12-07T11:56:56;34.25;;;25.95;;
16401;SDS011;8310;44.626;11.176;2022-12-07T11:59:31;34.35;;;26.35;;
16401;SDS011;8310;44.626;11.176;2022-12-07T12:02:10;38.53;;;28.15;;
16401;SDS011;8310;44.626;11.176;2022-12-07T12:04:47;37.10;;;27.77;;
16401;SDS011;8310;44.626;11.176;2022-12-07T12:07:21;35.38;;;27.40;;
16401;SDS011;8310;44.626;11.176;2022-12-07T12:09:51;35.17;;;26.77;;
16401;SDS011;8310;44.626;11.176;2022-12-07T12:12:29;35.28;;;25.98;;
16401;SDS011;8310;44.626;11.176;2022-12-07T12:15:29;28.42;;;23.80;;
16401;SDS011;8310;44.626;11.176;2022-12-07T12:18:17;37.35;;;26.85;;
16401;SDS011;8310;44.626;11.176;2022-12-07T12:20:57;33.22;;;25.83;;
16401;SDS011;8310;44.626;11.176;2022-12-07T12:23:32;32.65;;;26.45;;
16401;SDS011;8310;44.626;11.176;2022-12-07T12:26:05;32.28;;;23.88;;
16401;SDS011;8310;44.626;11.176;2022-12-07T12:28:35;28.65;;;22.98;;
16401;SDS011;8310;44.626;11.176;2022-12-07T12:31:08;29.17;;;23.13;;
16401;SDS011;8310;44.626;11.176;2022-12-07T12:33:42;28.55;;;22.35;;
16401;SDS011;8310;44.626;11.176;2022-12-07T12:36:42;29.42;;;23.35;;
16401;SDS011;8310;44.626;11.176;2022-12-07T12:39:12;30.20;;;23.33;;
16401;SDS011;8310;44.626;11.176;2022-12-07T12:47:53;29.83;;;22.33;;
16401;SDS011;8310;44.626;11.176;2022-12-07T12:50:26;27.45;;;21.30;;
16401;SDS011;8310;44.626;11.176;2022-12-07T12:53:11;30.83;;;22.20;;
16401;SDS011;8310;44.626;11.176;2022-12-07T12:58:44;26.23;;;21.13;;
16401;SDS011;8310;44.626;11.176;2022-12-07T13:04:24;29.77;;;21.40;;
16401;SDS011;8310;44.626;11.176;2022-12-07T13:07:10;27.13;;;21.45;;
16401;SDS011;8310;44.626;11.176;2022-12-07T13:09:44;27.25;;;21.70;;
16401;SDS011;8310;44.626;11.176;2022-12-07T13:12:13;31.33;;;22.25;;
16401;SDS011;8310;44.626;11.176;2022-12-07T13:23:31;27.92;;;21.48;;
16401;SDS011;8310;44.626;11.176;2022-12-07T13:26:09;28.60;;;21.70;;
16401;SDS011;8310;44.626;11.176;2022-12-07T13:28:42;28.55;;;21.73;;
16401;SDS011;8310;44.626;11.176;2022-12-07T13:31:13;28.30;;;21.48;;
16401;SDS011;8310;44.626;11.176;2022-12-07T13:33:53;31.50;;;21.90;;
16401;SDS011;8310;44.626;11.176;2022-12-07T13:36:24;25.73;;;21.35;;
16401;SDS011;8310;44.626;11.176;2022-12-07T13:38:54;32.78;;;22.58;;
16401;SDS011;8310;44.626;11.176;2022-12-07T13:41:25;29.00;;;22.25;;
16401;SDS011;8310;44.626;11.176;2022-12-07T13:44:01;27.85;;;21.38;;
16401;SDS011;8310;44.626;11.176;2022-12-07T13:46:40;28.00;;;21.67;;
16401;SDS011;8310;44.626;11.176;2022-12-07T13:49:18;29.00;;;22.70;;
16401;SDS011;8310;44.626;11.176;2022-12-07T13:51:48;30.42;;;22.55;;
16401;SDS011;8310;44.626;11.176;2022-12-07T13:54:16;31.35;;;22.27;;
16401;SDS011;8310;44.626;11.176;2022-12-07T13:56:46;28.35;;;22.05;;
16401;SDS011;8310;44.626;11.176;2022-12-07T13:59:18;27.88;;;22.15;;
16401;SDS011;8310;44.626;11.176;2022-12-07T14:01:48;30.83;;;22.10;;
16401;SDS011;8310;44.626;11.176;2022-12-07T14:04:17;27.73;;;22.50;;
16401;SDS011;8310;44.626;11.176;2022-12-07T14:06:58;27.73;;;22.38;;
16401;SDS011;8310;44.626;11.176;2022-12-07T14:09:28;34.00;;;24.17;;
16401;SDS011;8310;44.626;11.176;2022-12-07T14:11:58;28.52;;;22.75;;
16401;SDS011;8310;44.626;11.176;2022-12-07T14:14:32;30.52;;;23.42;;
16401;SDS011;8310;44.626;11.176;2022-12-07T14:17:00;28.05;;;22.92;;
16401;SDS011;8310;44.626;11.176;2022-12-07T14:19:43;31.10;;;23.85;;
16401;SDS011;8310;44.626;11.176;2022-12-07T14:22:18;30.85;;;21.73;;
16401;SDS011;8310;44.626;11.176;2022-12-07T14:24:58;29.48;;;23.45;;
16401;SDS011;8310;44.626;11.176;2022-12-07T14:27:32;28.08;;;22.23;;
16401;SDS011;8310;44.626;11.176;2022-12-07T14:30:01;28.67;;;22.15;;
16401;SDS011;8310;44.626;11.176;2022-12-07T14:32:29;28.10;;;20.27;;
16401;SDS011;8310;44.626;11.176;2022-12-07T14:34:59;28.48;;;21.83;;
16401;SDS011;8310;44.626;11.176;2022-12-07T14:37:29;26.40;;;21.50;;
16401;SDS011;8310;44.626;11.176;2022-12-07T14:39:57;29.25;;;22.15;;
16401;SDS011;8310;44.626;11.176;2022-12-07T14:42:26;30.98;;;23.42;;
16401;SDS011;8310;44.626;11.176;2022-12-07T14:45:00;28.25;;;22.65;;
16401;SDS011;8310;44.626;11.176;2022-12-07T14:47:28;31.75;;;23.17;;
16401;SDS011;8310;44.626;11.176;2022-12-07T14:49:55;25.70;;;21.30;;
16401;SDS011;8310;44.626;11.176;2022-12-07T14:52:23;26.15;;;21.20;;
16401;SDS011;8310;44.626;11.176;2022-12-07T14:54:54;28.70;;;22.63;;
16401;SDS011;8310;44.626;11.176;2022-12-07T14:57:21;26.73;;;20.63;;
16401;SDS011;8310;44.626;11.176;2022-12-07T14:59:51;26.67;;;20.88;;
16401;SDS011;8310;44.626;11.176;2022-12-07T15:02:18;28.90;;;22.83;;
16401;SDS011;8310;44.626;11.176;2022-12-07T15:04:46;27.30;;;21.48;;
16401;SDS011;8310;44.626;11.176;2022-12-07T15:07:15;28.80;;;22.33;;
16401;SDS011;8310;44.626;11.176;2022-12-07T15:09:46;29.45;;;22.75;;
16401;SDS011;8310;44.626;11.176;2022-12-07T15:12:14;30.52;;;22.77;;
16401;SDS011;8310;44.626;11.176;2022-12-07T15:14:43;28.60;;;22.20;;